Ringtown, Pennsylvania
Current Conditions -  °F | °C
As of 11:55 PM on Friday 28 Nov 2014 (Local Time) from KHZL Reporting Station
Broken Clouds Broken Clouds  
Wind Chill: 21°   Ceiling: 12000
Heat Index: 21°   Visibility: 10mi
Dew Point: 14°   Wind: 3mph
Humidity: 74%   Direction: 270°W
Pressure: 30.2"   Gusts: NA
Location:  40.86°N, 76.23°W
Report Text: KHZL 290455Z AUTO 27003KT 10SM BKN120 M06/M10 A3020 RMK AO2
Loading
Personal Weather Stations






























Interactive Weather Map New forecast layout! Learn more

10-Day Weather Forecast

Advertisements
Track Severe Weather on mobile